Station Historical Data
Daily Summary for April 29, 2012 Units:  Both    English   Metric
« Previous Day
Next Day »
Daily Weekly Monthly Yearly Custom
  High: Low: Average:
Temperature: 83.7 °F /  28.7 °C 62.3 °F /  16.8 °C 72.1 °F /  22.3 °C
Dew Point: 67.3 °F /  19.6 °C 54.7 °F /  12.6 °C 61.4 °F /  16.3 °C
Humidity: 92% 39% 71%
Wind Speed: 12.0mph /  19.3km/h - 2.5mph /  4km/h
Wind Gust: 14.0mph /  22.5km/h - -
Wind- - South
Pressure: 30.08 in /  1018.5 hPa 30.00 in /  1015.8 hPa -
Precipitation: 0.00 in /  0 mm    
Historical Graphs
 
 
Tabular Data for April 29, 2012
Time Temperature Dew Point Pressure Wind Wind Speed Wind Gust Humidity Rainfall Rate (Hourly) Conditions
00:00 66.2 °F /  19 °C 60.9 °F /  16.1 °C 30.02in /  1016.5hPa ENE 1.0mph /  1.6km/h 1.0mph /  1.6km/h 83% 0.00in /  0mm
00:05 66.1 °F /  18.9 °C 61.1 °F /  16.2 °C 30.02in /  1016.5hPa ENE 1.0mph /  1.6km/h 1.0mph /  1.6km/h 84% 0.00in /  0mm
00:10 66.1 °F /  18.9 °C 60.8 °F /  16 °C 30.02in /  1016.5hPa Calm     83% 0.00in /  0mm
00:15 65.7 °F /  18.7 °C 60.7 °F /  15.9 °C 30.03in /  1016.8hPa Calm   1.0mph /  1.6km/h 84% 0.00in /  0mm
00:21 65.3 °F /  18.5 °C 60.7 °F /  15.9 °C 30.03in /  1016.8hPa ENE 1.0mph /  1.6km/h 1.0mph /  1.6km/h 85% 0.00in /  0mm
00:26 64.8 °F /  18.2 °C 60.5 °F /  15.8 °C 30.03in /  1016.8hPa ENE 1.0mph /  1.6km/h 2.0mph /  3.2km/h 86% 0.00in /  0mm
00:31 65.0 °F /  18.3 °C 61.0 °F /  16.1 °C 30.03in /  1016.8hPa ENE 1.0mph /  1.6km/h 1.0mph /  1.6km/h 87% 0.00in /  0mm
00:36 64.8 °F /  18.2 °C 60.5 °F /  15.8 °C 30.03in /  1016.8hPa Calm   1.0mph /  1.6km/h 86% 0.00in /  0mm
00:41 64.5 °F /  18.1 °C 60.2 °F /  15.7 °C 30.03in /  1016.8hPa Calm     86% 0.00in /  0mm
00:46 64.2 °F /  17.9 °C 60.3 °F /  15.7 °C 30.04in /  1017.2hPa NNE 1.0mph /  1.6km/h 2.0mph /  3.2km/h 87% 0.00in /  0mm
00:51 63.9 °F /  17.7 °C 60.3 °F /  15.7 °C 30.04in /  1017.2hPa Calm   1.0mph /  1.6km/h 88% 0.00in /  0mm
00:56 63.9 °F /  17.7 °C 60.6 °F /  15.9 °C 30.04in /  1017.2hPa Calm     89% 0.00in /  0mm
01:01 63.9 °F /  17.7 °C 60.6 °F /  15.9 °C 30.04in /  1017.2hPa Calm     89% 0.00in /  0mm
01:06 64.0 °F /  17.8 °C 60.7 °F /  15.9 °C 30.04in /  1017.2hPa Calm     89% 0.00in /  0mm
01:11 64.2 °F /  17.9 °C 60.6 °F /  15.9 °C 30.04in /  1017.2hPa Calm   1.0mph /  1.6km/h 88% 0.00in /  0mm
01:16 64.2 °F /  17.9 °C 60.6 °F /  15.9 °C 30.04in /  1017.2hPa Calm     88% 0.00in /  0mm
01:21 64.0 °F /  17.8 °C 60.4 °F /  15.8 °C 30.04in /  1017.2hPa Calm     88% 0.00in /  0mm
01:26 63.9 °F /  17.7 °C 60.6 °F /  15.9 °C 30.04in /  1017.2hPa Calm     89% 0.00in /  0mm
01:31 63.8 °F /  17.7 °C 60.5 °F /  15.8 °C 30.04in /  1017.2hPa Calm     89% 0.00in /  0mm
01:36 64.1 °F /  17.8 °C 60.8 °F /  16 °C 30.04in /  1017.2hPa ESE 1.0mph /  1.6km/h 2.0mph /  3.2km/h 89% 0.00in /  0mm
01:41 64.5 °F /  18.1 °C 60.9 °F /  16.1 °C 30.04in /  1017.2hPa East 1.0mph /  1.6km/h 1.0mph /  1.6km/h 88% 0.00in /  0mm
01:46 65.1 °F /  18.4 °C 60.8 °F /  16 °C 30.04in /  1017.2hPa Calm   2.0mph /  3.2km/h 86% 0.00in /  0mm
01:51 65.2 °F /  18.4 °C 60.6 °F /  15.9 °C 30.04in /  1017.2hPa Calm     85% 0.00in /  0mm
01:56 64.9 °F /  18.3 °C 60.6 °F /  15.9 °C 30.04in /  1017.2hPa Calm   1.0mph /  1.6km/h 86% 0.00in /  0mm
02:01 65.0 °F /  18.3 °C 60.7 °F /  15.9 °C 30.04in /  1017.2hPa ENE 1.0mph /  1.6km/h 1.0mph /  1.6km/h 86% 0.00in /  0mm
02:06 64.9 °F /  18.3 °C 60.6 °F /  15.9 °C 30.04in /  1017.2hPa Calm   2.0mph /  3.2km/h 86% 0.00in /  0mm
02:11 64.6 °F /  18.1 °C 60.3 °F /  15.7 °C 30.04in /  1017.2hPa Calm     86% 0.00in /  0mm
02:16 64.2 °F /  17.9 °C 60.3 °F /  15.7 °C 30.04in /  1017.2hPa East 1.0mph /  1.6km/h 1.0mph /  1.6km/h 87% 0.00in /  0mm
02:21 64.3 °F /  17.9 °C 60.7 °F /  15.9 °C 30.04in /  1017.2hPa East 1.0mph /  1.6km/h 3.0mph /  4.8km/h 88% 0.00in /  0mm
02:26 64.5 °F /  18.1 °C 60.5 °F /  15.8 °C 30.04in /  1017.2hPa Calm   1.0mph /  1.6km/h 87% 0.00in /  0mm
02:31 64.3 °F /  17.9 °C 60.3 °F /  15.7 °C 30.04in /  1017.2hPa Calm   1.0mph /  1.6km/h 87% 0.00in /  0mm
02:37 63.9 °F /  17.7 °C 60.0 °F /  15.6 °C 30.03in /  1016.8hPa Calm     87% 0.00in /  0mm
02:42 63.5 °F /  17.5 °C 59.9 °F /  15.5 °C 30.03in /  1016.8hPa ESE 2.0mph /  3.2km/h 2.0mph /  3.2km/h 88% 0.00in /  0mm
02:47 63.6 °F /  17.6 °C 60.3 °F /  15.7 °C 30.03in /  1016.8hPa ESE 3.0mph /  4.8km/h 4.0mph /  6.4km/h 89% 0.00in /  0mm
02:52 63.9 °F /  17.7 °C 60.6 °F /  15.9 °C 30.03in /  1016.8hPa East 2.0mph /  3.2km/h 4.0mph /  6.4km/h 89% 0.00in /  0mm
02:57 64.1 °F /  17.8 °C 60.5 °F /  15.8 °C 30.03in /  1016.8hPa ESE 3.0mph /  4.8km/h 3.0mph /  4.8km/h 88% 0.00in /  0mm
03:02 64.1 °F /  17.8 °C 60.5 °F /  15.8 °C 30.03in /  1016.8hPa ESE 3.0mph /  4.8km/h 4.0mph /  6.4km/h 88% 0.00in /  0mm
03:07 64.1 °F /  17.8 °C 60.5 °F /  15.8 °C 30.03in /  1016.8hPa ESE 3.0mph /  4.8km/h 4.0mph /  6.4km/h 88% 0.00in /  0mm
03:12 64.2 °F /  17.9 °C 60.6 °F /  15.9 °C 30.03in /  1016.8hPa ESE 3.0mph /  4.8km/h 5.0mph /  8km/h 88% 0.00in /  0mm
03:17 64.5 °F /  18.1 °C 60.9 °F /  16.1 °C 30.03in /  1016.8hPa ESE 4.0mph /  6.4km/h 5.0mph /  8km/h 88% 0.00in /  0mm
03:22 64.7 °F /  18.2 °C 60.8 °F /  16 °C 30.03in /  1016.8hPa ESE 3.0mph /  4.8km/h 4.0mph /  6.4km/h 87% 0.00in /  0mm
03:27 64.6 °F /  18.1 °C 60.7 °F /  15.9 °C 30.03in /  1016.8hPa ESE 2.0mph /  3.2km/h 3.0mph /  4.8km/h 87% 0.00in /  0mm
03:32 64.5 °F /  18.1 °C 60.5 °F /  15.8 °C 30.03in /  1016.8hPa ESE 2.0mph /  3.2km/h 3.0mph /  4.8km/h 87% 0.00in /  0mm
03:37 64.3 °F /  17.9 °C 60.7 °F /  15.9 °C 30.03in /  1016.8hPa ESE 3.0mph /  4.8km/h 4.0mph /  6.4km/h 88% 0.00in /  0mm
03:42 64.2 °F /  17.9 °C 60.6 °F /  15.9 °C 30.03in /  1016.8hPa East 2.0mph /  3.2km/h 2.0mph /  3.2km/h 88% 0.00in /  0mm
03:47 64.0 °F /  17.8 °C 60.1 °F /  15.6 °C 30.03in /  1016.8hPa Calm     87% 0.00in /  0mm
03:52 63.8 °F /  17.7 °C 60.2 °F /  15.7 °C 30.03in /  1016.8hPa SE 1.0mph /  1.6km/h 2.0mph /  3.2km/h 88% 0.00in /  0mm
03:57 63.5 °F /  17.5 °C 59.9 °F /  15.5 °C 30.03in /  1016.8hPa Calm     88% 0.00in /  0mm
04:02 63.1 °F /  17.3 °C 59.8 °F /  15.4 °C 30.03in /  1016.8hPa Calm   1.0mph /  1.6km/h 89% 0.00in /  0mm
04:07 63.0 °F /  17.2 °C 60.0 °F /  15.6 °C 30.04in /  1017.2hPa Calm   1.0mph /  1.6km/h 90% 0.00in /  0mm
04:12 62.9 °F /  17.2 °C 59.9 °F /  15.5 °C 30.04in /  1017.2hPa Calm     90% 0.00in /  0mm
04:17 62.8 °F /  17.1 °C 59.8 °F /  15.4 °C 30.04in /  1017.2hPa ESE 1.0mph /  1.6km/h 1.0mph /  1.6km/h 90% 0.00in /  0mm
04:22 62.7 °F /  17.1 °C 59.7 °F /  15.4 °C 30.03in /  1016.8hPa SE 1.0mph /  1.6km/h 1.0mph /  1.6km/h 90% 0.00in /  0mm
04:27 62.8 °F /  17.1 °C 59.8 °F /  15.4 °C 30.04in /  1017.2hPa SE 1.0mph /  1.6km/h 3.0mph /  4.8km/h 90% 0.00in /  0mm
04:33 63.0 °F /  17.2 °C 60.0 °F /  15.6 °C 30.04in /  1017.2hPa ESE 3.0mph /  4.8km/h 3.0mph /  4.8km/h 90% 0.00in /  0mm
04:38 63.2 °F /  17.3 °C 60.2 °F /  15.7 °C 30.04in /  1017.2hPa SE 2.0mph /  3.2km/h 2.0mph /  3.2km/h 90% 0.00in /  0mm
04:43 63.3 °F /  17.4 °C 60.3 °F /  15.7 °C 30.04in /  1017.2hPa SE 1.0mph /  1.6km/h 2.0mph /  3.2km/h 90% 0.00in /  0mm
04:48 63.5 °F /  17.5 °C 60.5 °F /  15.8 °C 30.03in /  1016.8hPa ESE 3.0mph /  4.8km/h 3.0mph /  4.8km/h 90% 0.00in /  0mm
04:53 63.7 °F /  17.6 °C 60.7 °F /  15.9 °C 30.03in /  1016.8hPa ESE 3.0mph /  4.8km/h 4.0mph /  6.4km/h 90% 0.00in /  0mm
04:58 63.7 °F /  17.6 °C 60.4 °F /  15.8 °C 30.03in /  1016.8hPa SE 2.0mph /  3.2km/h 4.0mph /  6.4km/h 89% 0.00in /  0mm
05:03 63.6 °F /  17.6 °C 60.3 °F /  15.7 °C 30.03in /  1016.8hPa ESE 2.0mph /  3.2km/h 3.0mph /  4.8km/h 89% 0.00in /  0mm
05:08 63.6 °F /  17.6 °C 60.3 °F /  15.7 °C 30.04in /  1017.2hPa ESE 2.0mph /  3.2km/h 3.0mph /  4.8km/h 89% 0.00in /  0mm
05:13 63.5 °F /  17.5 °C 60.2 °F /  15.7 °C 30.04in /  1017.2hPa SE 1.0mph /  1.6km/h 3.0mph /  4.8km/h 89% 0.00in /  0mm
05:18 63.3 °F /  17.4 °C 60.0 °F /  15.6 °C 30.04in /  1017.2hPa SE 1.0mph /  1.6km/h 2.0mph /  3.2km/h 89% 0.00in /  0mm
05:23 63.2 °F /  17.3 °C 60.2 °F /  15.7 °C 30.04in /  1017.2hPa SE 2.0mph /  3.2km/h 2.0mph /  3.2km/h 90% 0.00in /  0mm
05:28 63.0 °F /  17.2 °C 60.0 °F /  15.6 °C 30.04in /  1017.2hPa SE 3.0mph /  4.8km/h 3.0mph /  4.8km/h 90% 0.00in /  0mm
05:33 62.9 °F /  17.2 °C 59.9 °F /  15.5 °C 30.04in /  1017.2hPa SSE 2.0mph /  3.2km/h 2.0mph /  3.2km/h 90% 0.00in /  0mm
05:38 62.9 °F /  17.2 °C 59.9 °F /  15.5 °C 30.03in /  1016.8hPa SSE 2.0mph /  3.2km/h 3.0mph /  4.8km/h 90% 0.00in /  0mm
05:43 63.0 °F /  17.2 °C 60.3 °F /  15.7 °C 30.03in /  1016.8hPa SSE 2.0mph /  3.2km/h 3.0mph /  4.8km/h 91% 0.00in /  0mm
05:48 62.8 °F /  17.1 °C 59.8 °F /  15.4 °C 30.03in /  1016.8hPa SE 2.0mph /  3.2km/h 3.0mph /  4.8km/h 90% 0.00in /  0mm
05:53 63.0 °F /  17.2 °C 60.3 °F /  15.7 °C 30.03in /  1016.8hPa SE 3.0mph /  4.8km/h 3.0mph /  4.8km/h 91% 0.00in /  0mm
05:58 63.1 °F /  17.3 °C 60.4 °F /  15.8 °C 30.03in /  1016.8hPa SSE 3.0mph /  4.8km/h 4.0mph /  6.4km/h 91% 0.00in /  0mm
06:03 63.2 °F /  17.3 °C 60.5 °F /  15.8 °C 30.03in /  1016.8hPa SSE 4.0mph /  6.4km/h 4.0mph /  6.4km/h 91% 0.00in /  0mm
06:08 63.2 °F /  17.3 °C 60.5 °F /  15.8 °C 30.03in /  1016.8hPa SSE 4.0mph /  6.4km/h 5.0mph /  8km/h 91% 0.00in /  0mm
06:13 63.1 °F /  17.3 °C 60.4 °F /  15.8 °C 30.03in /  1016.8hPa SE 3.0mph /  4.8km/h 4.0mph /  6.4km/h 91% 0.00in /  0mm
06:18 63.2 °F /  17.3 °C 60.5 °F /  15.8 °C 30.03in /  1016.8hPa SSE 3.0mph /  4.8km/h 5.0mph /  8km/h 91% 0.00in /  0mm
06:23 63.2 °F /  17.3 °C 60.5 °F /  15.8 °C 30.03in /  1016.8hPa SE 4.0mph /  6.4km/h 5.0mph /  8km/h 91% 0.00in /  0mm
06:28 63.2 °F /  17.3 °C 60.5 °F /  15.8 °C 30.02in /  1016.5hPa SE 3.0mph /  4.8km/h 5.0mph /  8km/h 91% 0.00in /  0mm
06:33 63.2 °F /  17.3 °C 60.5 °F /  15.8 °C 30.02in /  1016.5hPa SE 2.0mph /  3.2km/h 5.0mph /  8km/h 91% 0.00in /  0mm
06:38 63.3 °F /  17.4 °C 60.6 °F /  15.9 °C 30.03in /  1016.8hPa SE 2.0mph /  3.2km/h 3.0mph /  4.8km/h 91% 0.00in /  0mm
06:43 63.1 °F /  17.3 °C 60.4 °F /  15.8 °C 30.03in /  1016.8hPa SE 2.0mph /  3.2km/h 3.0mph /  4.8km/h 91% 0.00in /  0mm
06:48 63.1 °F /  17.3 °C 60.4 °F /  15.8 °C 30.03in /  1016.8hPa SSE 2.0mph /  3.2km/h 2.0mph /  3.2km/h 91% 0.00in /  0mm
06:54 63.0 °F /  17.2 °C 60.3 °F /  15.7 °C 30.03in /  1016.8hPa SSE 2.0mph /  3.2km/h 2.0mph /  3.2km/h 91% 0.00in /  0mm
06:59 62.9 °F /  17.2 °C 60.2 °F /  15.7 °C 30.04in /  1017.2hPa SE 1.0mph /  1.6km/h 2.0mph /  3.2km/h 91% 0.00in /  0mm
07:04 62.7 °F /  17.1 °C 60.0 °F /  15.6 °C 30.04in /  1017.2hPa SE 1.0mph /  1.6km/h 2.0mph /  3.2km/h 91% 0.00in /  0mm
07:09 62.6 °F /  17 °C 59.9 °F /  15.5 °C 30.04in /  1017.2hPa Calm     91% 0.00in /  0mm
07:14 62.5 °F /  16.9 °C 59.8 °F /  15.4 °C 30.05in /  1017.5hPa Calm     91% 0.00in /  0mm
07:19 62.3 °F /  16.8 °C 60.0 °F /  15.6 °C 30.05in /  1017.5hPa Calm     92% 0.00in /  0mm
07:24 62.3 °F /  16.8 °C 60.0 °F /  15.6 °C 30.05in /  1017.5hPa Calm     92% 0.00in /  0mm
07:29 62.3 °F /  16.8 °C 60.0 °F /  15.6 °C 30.05in /  1017.5hPa Calm     92% 0.00in /  0mm
07:34 62.4 °F /  16.9 °C 60.0 °F /  15.6 °C 30.05in /  1017.5hPa Calm     92% 0.00in /  0mm
07:39 62.6 °F /  17 °C 60.2 °F /  15.7 °C 30.06in /  1017.8hPa Calm     92% 0.00in /  0mm
07:44 62.9 °F /  17.2 °C 60.5 °F /  15.8 °C 30.06in /  1017.8hPa Calm     92% 0.00in /  0mm
07:49 63.3 °F /  17.4 °C 60.9 °F /  16.1 °C 30.06in /  1017.8hPa SSE 1.0mph /  1.6km/h 3.0mph /  4.8km/h 92% 0.00in /  0mm
07:54 63.6 °F /  17.6 °C 61.2 °F /  16.2 °C 30.06in /  1017.8hPa SSE 2.0mph /  3.2km/h 3.0mph /  4.8km/h 92% 0.00in /  0mm
07:59 63.9 °F /  17.7 °C 61.2 °F /  16.2 °C 30.07in /  1018.2hPa SSE 2.0mph /  3.2km/h 2.0mph /  3.2km/h 91% 0.00in /  0mm
08:04 64.2 °F /  17.9 °C 61.5 °F /  16.4 °C 30.07in /  1018.2hPa SE 2.0mph /  3.2km/h 2.0mph /  3.2km/h 91% 0.00in /  0mm
08:09 64.7 °F /  18.2 °C 62.0 °F /  16.7 °C 30.07in /  1018.2hPa SE 1.0mph /  1.6km/h 2.0mph /  3.2km/h 91% 0.00in /  0mm
08:14 65.2 °F /  18.4 °C 62.2 °F /  16.8 °C 30.08in /  1018.5hPa SW 1.0mph /  1.6km/h 2.0mph /  3.2km/h 90% 0.00in /  0mm
08:19 65.8 °F /  18.8 °C 62.5 °F /  16.9 °C 30.08in /  1018.5hPa South 3.0mph /  4.8km/h 3.0mph /  4.8km/h 89% 0.00in /  0mm
08:24 66.2 °F /  19 °C 62.9 °F /  17.2 °C 30.07in /  1018.2hPa SE 2.0mph /  3.2km/h 5.0mph /  8km/h 89% 0.00in /  0mm
08:29 66.7 °F /  19.3 °C 63.0 °F /  17.2 °C 30.08in /  1018.5hPa SE 4.0mph /  6.4km/h 5.0mph /  8km/h 88% 0.00in /  0mm
08:34 67.1 °F /  19.5 °C 63.1 °F /  17.3 °C 30.08in /  1018.5hPa SSW 1.0mph /  1.6km/h 3.0mph /  4.8km/h 87% 0.00in /  0mm
08:39 67.6 °F /  19.8 °C 63.6 °F /  17.6 °C 30.08in /  1018.5hPa SSE 4.0mph /  6.4km/h 4.0mph /  6.4km/h 87% 0.00in /  0mm
08:44 68.1 °F /  20.1 °C 63.8 °F /  17.7 °C 30.08in /  1018.5hPa South 1.0mph /  1.6km/h 3.0mph /  4.8km/h 86% 0.00in /  0mm
08:49 68.5 °F /  20.3 °C 63.5 °F /  17.5 °C 30.08in /  1018.5hPa SSW 2.0mph /  3.2km/h 3.0mph /  4.8km/h 84% 0.00in /  0mm
08:54 68.9 °F /  20.5 °C 63.9 °F /  17.7 °C 30.08in /  1018.5hPa SSW 2.0mph /  3.2km/h 3.0mph /  4.8km/h 84% 0.00in /  0mm
08:59 69.3 °F /  20.7 °C 63.9 °F /  17.7 °C 30.08in /  1018.5hPa SW 2.0mph /  3.2km/h 3.0mph /  4.8km/h 83% 0.00in /  0mm
09:04 69.7 °F /  20.9 °C 64.3 °F /  17.9 °C 30.08in /  1018.5hPa South 2.0mph /  3.2km/h 5.0mph /  8km/h 83% 0.00in /  0mm
09:09 70.1 °F /  21.2 °C 64.0 °F /  17.8 °C 30.08in /  1018.5hPa SSE 4.0mph /  6.4km/h 5.0mph /  8km/h 81% 0.00in /  0mm
09:14 70.4 °F /  21.3 °C 64.3 °F /  17.9 °C 30.08in /  1018.5hPa SSW 1.0mph /  1.6km/h 5.0mph /  8km/h 81% 0.00in /  0mm
09:19 70.5 °F /  21.4 °C 64.0 °F /  17.8 °C 30.08in /  1018.5hPa SSW 3.0mph /  4.8km/h 5.0mph /  8km/h 80% 0.00in /  0mm
09:24 70.5 °F /  21.4 °C 64.4 °F /  18 °C 30.08in /  1018.5hPa SW 3.0mph /  4.8km/h 5.0mph /  8km/h 81% 0.00in /  0mm
09:29 70.6 °F /  21.4 °C 64.1 °F /  17.8 °C 30.08in /  1018.5hPa SW 4.0mph /  6.4km/h 6.0mph /  9.7km/h 80% 0.00in /  0mm
09:34 70.7 °F /  21.5 °C 64.6 °F /  18.1 °C 30.08in /  1018.5hPa SSW 4.0mph /  6.4km/h 5.0mph /  8km/h 81% 0.00in /  0mm
09:39 71.1 °F /  21.7 °C 65.0 °F /  18.3 °C 30.08in /  1018.5hPa SW 6.0mph /  9.7km/h 6.0mph /  9.7km/h 81% 0.00in /  0mm
09:44 71.1 °F /  21.7 °C 64.6 °F /  18.1 °C 30.08in /  1018.5hPa WSW 5.0mph /  8km/h 6.0mph /  9.7km/h 80% 0.00in /  0mm
09:49 71.4 °F /  21.9 °C 64.6 °F /  18.1 °C 30.08in /  1018.5hPa SW 3.0mph /  4.8km/h 8.0mph /  12.9km/h 79% 0.00in /  0mm
09:54 71.6 °F /  22 °C 64.8 °F /  18.2 °C 30.08in /  1018.5hPa SW 3.0mph /  4.8km/h 8.0mph /  12.9km/h 79% 0.00in /  0mm
09:59 71.6 °F /  22 °C 64.8 °F /  18.2 °C 30.08in /  1018.5hPa WSW 7.0mph /  11.3km/h 9.0mph /  14.5km/h 79% 0.00in /  0mm
10:04 71.6 °F /  22 °C 64.8 °F /  18.2 °C 30.08in /  1018.5hPa SW 6.0mph /  9.7km/h 9.0mph /  14.5km/h 79% 0.00in /  0mm
10:09 71.6 °F /  22 °C 64.4 °F /  18 °C 30.08in /  1018.5hPa SW 7.0mph /  11.3km/h 10.0mph /  16.1km/h 78% 0.00in /  0mm
10:14 72.0 °F /  22.2 °C 65.1 °F /  18.4 °C 30.08in /  1018.5hPa SW 4.0mph /  6.4km/h 7.0mph /  11.3km/h 79% 0.00in /  0mm
10:19 72.3 °F /  22.4 °C 65.1 °F /  18.4 °C 30.08in /  1018.5hPa WSW 3.0mph /  4.8km/h 6.0mph /  9.7km/h 78% 0.00in /  0mm
10:25 72.9 °F /  22.7 °C 66.0 °F /  18.9 °C 30.08in /  1018.5hPa WSW 3.0mph /  4.8km/h 6.0mph /  9.7km/h 79% 0.00in /  0mm
10:30 73.4 °F /  23 °C 65.8 °F /  18.8 °C 30.08in /  1018.5hPa WSW 6.0mph /  9.7km/h 7.0mph /  11.3km/h 77% 0.00in /  0mm
10:31 73.5 °F /  23.1 °C 65.9 °F /  18.8 °C 30.08in /  1018.5hPa WNW 3.0mph /  4.8km/h 7.0mph /  11.3km/h 77% 0.00in /  0mm
10:36 74.2 °F /  23.4 °C 66.5 °F /  19.2 °C 30.08in /  1018.5hPa SSW 3.0mph /  4.8km/h 4.0mph /  6.4km/h 77% 0.00in /  0mm
10:42 74.6 °F /  23.7 °C 66.2 °F /  19 °C 30.07in /  1018.2hPa SW 4.0mph /  6.4km/h 7.0mph /  11.3km/h 75% 0.00in /  0mm
10:47 74.7 °F /  23.7 °C 66.6 °F /  19.2 °C 30.07in /  1018.2hPa SSW 2.0mph /  3.2km/h 6.0mph /  9.7km/h 76% 0.00in /  0mm
10:52 75.4 °F /  24.1 °C 66.2 °F /  19 °C 30.07in /  1018.2hPa SE 2.0mph /  3.2km/h 4.0mph /  6.4km/h 73% 0.00in /  0mm
10:57 75.9 °F /  24.4 °C 66.6 °F /  19.2 °C 30.07in /  1018.2hPa SSW 2.0mph /  3.2km/h 4.0mph /  6.4km/h 73% 0.00in /  0mm
11:02 76.0 °F /  24.4 °C 65.9 °F /  18.8 °C 30.07in /  1018.2hPa SW 3.0mph /  4.8km/h 5.0mph /  8km/h 71% 0.00in /  0mm
11:07 76.2 °F /  24.6 °C 66.1 °F /  18.9 °C 30.07in /  1018.2hPa SE 2.0mph /  3.2km/h 5.0mph /  8km/h 71% 0.00in /  0mm
11:12 76.6 °F /  24.8 °C 66.1 °F /  18.9 °C 30.08in /  1018.5hPa SSW 2.0mph /  3.2km/h 7.0mph /  11.3km/h 70% 0.00in /  0mm
11:17 76.9 °F /  24.9 °C 65.5 °F /  18.6 °C 30.08in /  1018.5hPa SSE 2.0mph /  3.2km/h 6.0mph /  9.7km/h 68% 0.00in /  0mm
11:22 77.2 °F /  25.1 °C 65.4 °F /  18.6 °C 30.08in /  1018.5hPa West 2.0mph /  3.2km/h 7.0mph /  11.3km/h 67% 0.00in /  0mm
11:27 77.1 °F /  25.1 °C 65.7 °F /  18.7 °C 30.08in /  1018.5hPa WNW 3.0mph /  4.8km/h 7.0mph /  11.3km/h 68% 0.00in /  0mm
11:32 77.1 °F /  25.1 °C 66.2 °F /  19 °C 30.08in /  1018.5hPa SSW 3.0mph /  4.8km/h 8.0mph /  12.9km/h 69% 0.00in /  0mm
11:37 77.3 °F /  25.2 °C 66.3 °F /  19.1 °C 30.08in /  1018.5hPa South 2.0mph /  3.2km/h 5.0mph /  8km/h 69% 0.00in /  0mm
11:42 77.9 °F /  25.5 °C 67.3 °F /  19.6 °C 30.08in /  1018.5hPa SSW 3.0mph /  4.8km/h 6.0mph /  9.7km/h 70% 0.00in /  0mm
11:47 78.1 °F /  25.6 °C 65.8 °F /  18.8 °C 30.08in /  1018.5hPa West 4.0mph /  6.4km/h 7.0mph /  11.3km/h 66% 0.00in /  0mm
11:52 78.1 °F /  25.6 °C 66.3 °F /  19.1 °C 30.08in /  1018.5hPa SW 7.0mph /  11.3km/h 8.0mph /  12.9km/h 67% 0.00in /  0mm
11:57 77.6 °F /  25.3 °C 64.5 °F /  18.1 °C 30.07in /  1018.2hPa WSW 2.0mph /  3.2km/h 8.0mph /  12.9km/h 64% 0.00in /  0mm
12:02 78.1 °F /  25.6 °C 65.4 °F /  18.6 °C 30.07in /  1018.2hPa SSE 5.0mph /  8km/h 6.0mph /  9.7km/h 65% 0.00in /  0mm
12:07 77.8 °F /  25.4 °C 65.5 °F /  18.6 °C 30.07in /  1018.2hPa SW 3.0mph /  4.8km/h 7.0mph /  11.3km/h 66% 0.00in /  0mm
12:12 77.8 °F /  25.4 °C 65.5 °F /  18.6 °C 30.07in /  1018.2hPa ESE 4.0mph /  6.4km/h 6.0mph /  9.7km/h 66% 0.00in /  0mm
12:18 78.1 °F /  25.6 °C 66.3 °F /  19.1 °C 30.07in /  1018.2hPa SW 5.0mph /  8km/h 5.0mph /  8km/h 67% 0.00in /  0mm
12:23 78.6 °F /  25.9 °C 66.7 °F /  19.3 °C 30.07in /  1018.2hPa WNW 2.0mph /  3.2km/h 14.0mph /  22.5km/h 67% 0.00in /  0mm
12:27 79.6 °F /  26.4 °C 67.2 °F /  19.6 °C 30.07in /  1018.2hPa SSE 8.0mph /  12.9km/h 9.0mph /  14.5km/h 66% 0.00in /  0mm
12:32 79.6 °F /  26.4 °C 65.4 °F /  18.6 °C 30.07in /  1018.2hPa SE 5.0mph /  8km/h 8.0mph /  12.9km/h 62% 0.00in /  0mm
12:37 79.2 °F /  26.2 °C 64.1 °F /  17.8 °C 30.07in /  1018.2hPa SE 8.0mph /  12.9km/h 10.0mph /  16.1km/h 60% 0.00in /  0mm
12:43 79.2 °F /  26.2 °C 64.6 °F /  18.1 °C 30.06in /  1017.8hPa SE 8.0mph /  12.9km/h 9.0mph /  14.5km/h 61% 0.00in /  0mm
12:48 79.2 °F /  26.2 °C 64.1 °F /  17.8 °C 30.06in /  1017.8hPa WSW 7.0mph /  11.3km/h 8.0mph /  12.9km/h 60% 0.00in /  0mm
12:53 79.3 °F /  26.3 °C 65.6 °F /  18.7 °C 30.06in /  1017.8hPa SSE 10.0mph /  16.1km/h 11.0mph /  17.7km/h 63% 0.00in /  0mm
12:58 79.4 °F /  26.3 °C 64.8 °F /  18.2 °C 30.06in /  1017.8hPa SW 5.0mph /  8km/h 8.0mph /  12.9km/h 61% 0.00in /  0mm
13:03 79.6 °F /  26.4 °C 63.5 °F /  17.5 °C 30.06in /  1017.8hPa SE 7.0mph /  11.3km/h 13.0mph /  20.9km/h 58% 0.00in /  0mm
13:08 79.8 °F /  26.6 °C 63.2 °F /  17.3 °C 30.06in /  1017.8hPa SE 9.0mph /  14.5km/h 13.0mph /  20.9km/h 57% 0.00in /  0mm
13:13 79.8 °F /  26.6 °C 64.7 °F /  18.2 °C 30.06in /  1017.8hPa SSE 9.0mph /  14.5km/h 11.0mph /  17.7km/h 60% 0.00in /  0mm
13:18 79.7 °F /  26.5 °C 64.1 °F /  17.8 °C 30.06in /  1017.8hPa South 4.0mph /  6.4km/h 8.0mph /  12.9km/h 59% 0.00in /  0mm
13:23 79.9 °F /  26.6 °C 63.8 °F /  17.7 °C 30.05in /  1017.5hPa South 9.0mph /  14.5km/h 9.0mph /  14.5km/h 58% 0.00in /  0mm
13:28 79.9 °F /  26.6 °C 64.3 °F /  17.9 °C 30.05in /  1017.5hPa SSE 7.0mph /  11.3km/h 8.0mph /  12.9km/h 59% 0.00in /  0mm
13:33 79.7 °F /  26.5 °C 64.6 °F /  18.1 °C 30.05in /  1017.5hPa SSW 5.0mph /  8km/h 6.0mph /  9.7km/h 60% 0.00in /  0mm
13:38 80.0 °F /  26.7 °C 64.4 °F /  18 °C 30.05in /  1017.5hPa SSE 3.0mph /  4.8km/h 10.0mph /  16.1km/h 59% 0.00in /  0mm
13:43 80.3 °F /  26.8 °C 65.2 °F /  18.4 °C 30.05in /  1017.5hPa SSE 7.0mph /  11.3km/h 10.0mph /  16.1km/h 60% 0.00in /  0mm
13:48 80.1 °F /  26.7 °C 63.5 °F /  17.5 °C 30.05in /  1017.5hPa SE 3.0mph /  4.8km/h 10.0mph /  16.1km/h 57% 0.00in /  0mm
13:53 80.0 °F /  26.7 °C 64.9 °F /  18.3 °C 30.05in /  1017.5hPa ESE 5.0mph /  8km/h 10.0mph /  16.1km/h 60% 0.00in /  0mm
13:58 79.8 °F /  26.6 °C 63.7 °F /  17.6 °C 30.05in /  1017.5hPa SE 3.0mph /  4.8km/h 6.0mph /  9.7km/h 58% 0.00in /  0mm
14:03 80.3 °F /  26.8 °C 65.2 °F /  18.4 °C 30.05in /  1017.5hPa SSE 8.0mph /  12.9km/h 8.0mph /  12.9km/h 60% 0.00in /  0mm
14:08 80.0 °F /  26.7 °C 63.9 °F /  17.7 °C 30.05in /  1017.5hPa SSE 3.0mph /  4.8km/h 6.0mph /  9.7km/h 58% 0.00in /  0mm
14:13 80.3 °F /  26.8 °C 64.7 °F /  18.2 °C 30.05in /  1017.5hPa SSE 7.0mph /  11.3km/h 10.0mph /  16.1km/h 59% 0.00in /  0mm
14:18 80.4 °F /  26.9 °C 65.3 °F /  18.5 °C 30.05in /  1017.5hPa SE 12.0mph /  19.3km/h 12.0mph /  19.3km/h 60% 0.00in /  0mm
14:23 80.7 °F /  27.1 °C 64.1 °F /  17.8 °C 30.04in /  1017.2hPa SSW 8.0mph /  12.9km/h 9.0mph /  14.5km/h 57% 0.00in /  0mm
14:28 80.2 °F /  26.8 °C 64.1 °F /  17.8 °C 30.04in /  1017.2hPa West 5.0mph /  8km/h 7.0mph /  11.3km/h 58% 0.00in /  0mm
14:33 80.4 °F /  26.9 °C 65.3 °F /  18.5 °C 30.04in /  1017.2hPa SSE 11.0mph /  17.7km/h 11.0mph /  17.7km/h 60% 0.00in /  0mm
14:38 80.1 °F /  26.7 °C 63.5 °F /  17.5 °C 30.04in /  1017.2hPa SE 5.0mph /  8km/h 11.0mph /  17.7km/h 57% 0.00in /  0mm
14:43 80.2 °F /  26.8 °C 63.1 °F /  17.3 °C 30.04in /  1017.2hPa SE 2.0mph /  3.2km/h 2.0mph /  3.2km/h 56% 0.00in /  0mm
14:48 81.2 °F /  27.3 °C 64.5 °F /  18.1 °C 30.04in /  1017.2hPa SW 7.0mph /  11.3km/h 9.0mph /  14.5km/h 57% 0.00in /  0mm
14:53 81.8 °F /  27.7 °C 64.1 °F /  17.8 °C 30.04in /  1017.2hPa SE 6.0mph /  9.7km/h 8.0mph /  12.9km/h 55% 0.00in /  0mm
14:58 81.4 °F /  27.4 °C 63.7 °F /  17.6 °C 30.04in /  1017.2hPa WSW 6.0mph /  9.7km/h 9.0mph /  14.5km/h 55% 0.00in /  0mm
15:03 81.1 °F /  27.3 °C 62.9 °F /  17.2 °C 30.04in /  1017.2hPa SW 2.0mph /  3.2km/h 6.0mph /  9.7km/h 54% 0.00in /  0mm
15:08 81.5 °F /  27.5 °C 62.2 °F /  16.8 °C 30.04in /  1017.2hPa South 5.0mph /  8km/h 9.0mph /  14.5km/h 52% 0.00in /  0mm
15:13 81.7 °F /  27.6 °C 62.9 °F /  17.2 °C 30.04in /  1017.2hPa SW 4.0mph /  6.4km/h 10.0mph /  16.1km/h 53% 0.00in /  0mm
15:18 81.9 °F /  27.7 °C 63.6 °F /  17.6 °C 30.04in /  1017.2hPa SSE 3.0mph /  4.8km/h 6.0mph /  9.7km/h 54% 0.00in /  0mm
15:23 82.1 °F /  27.8 °C 62.8 °F /  17.1 °C 30.04in /  1017.2hPa SSW 3.0mph /  4.8km/h 8.0mph /  12.9km/h 52% 0.00in /  0mm
15:28 81.9 °F /  27.7 °C 62.0 °F /  16.7 °C 30.03in /  1016.8hPa West 3.0mph /  4.8km/h 7.0mph /  11.3km/h 51% 0.00in /  0mm
15:33 82.2 °F /  27.9 °C 62.8 °F /  17.1 °C 30.03in /  1016.8hPa WSW 3.0mph /  4.8km/h 3.0mph /  4.8km/h 52% 0.00in /  0mm
15:38 82.7 °F /  28.2 °C 62.8 °F /  17.1 °C 30.03in /  1016.8hPa SE 1.0mph /  1.6km/h 5.0mph /  8km/h 51% 0.00in /  0mm
15:43 82.9 °F /  28.3 °C 62.9 °F /  17.2 °C 30.03in /  1016.8hPa SSE 8.0mph /  12.9km/h 9.0mph /  14.5km/h 51% 0.00in /  0mm
15:48 82.5 °F /  28.1 °C 61.4 °F /  16.3 °C 30.03in /  1016.8hPa SW 1.0mph /  1.6km/h 11.0mph /  17.7km/h 49% 0.00in /  0mm
15:53 82.5 °F /  28.1 °C 61.4 °F /  16.3 °C 30.03in /  1016.8hPa SE 2.0mph /  3.2km/h 6.0mph /  9.7km/h 49% 0.00in /  0mm
15:58 82.9 °F /  28.3 °C 61.8 °F /  16.6 °C 30.03in /  1016.8hPa SSE 2.0mph /  3.2km/h 6.0mph /  9.7km/h 49% 0.00in /  0mm
16:03 83.2 °F /  28.4 °C 62.1 °F /  16.7 °C 30.02in /  1016.5hPa SSE 5.0mph /  8km/h 10.0mph /  16.1km/h 49% 0.00in /  0mm
16:08 82.8 °F /  28.2 °C 61.1 °F /  16.2 °C 30.02in /  1016.5hPa South 4.0mph /  6.4km/h 5.0mph /  8km/h 48% 0.00in /  0mm
16:13 83.0 °F /  28.3 °C 62.5 °F /  16.9 °C 30.02in /  1016.5hPa SSW 5.0mph /  8km/h 6.0mph /  9.7km/h 50% 0.00in /  0mm
16:18 82.8 °F /  28.2 °C 62.3 °F /  16.8 °C 30.02in /  1016.5hPa ESE 6.0mph /  9.7km/h 11.0mph /  17.7km/h 50% 0.00in /  0mm
16:23 82.5 °F /  28.1 °C 62.0 °F /  16.7 °C 30.02in /  1016.5hPa WSW 3.0mph /  4.8km/h 5.0mph /  8km/h 50% 0.00in /  0mm
16:28 82.0 °F /  27.8 °C 61.5 °F /  16.4 °C 30.02in /  1016.5hPa SW 1.0mph /  1.6km/h 7.0mph /  11.3km/h 50% 0.00in /  0mm
16:33 82.1 °F /  27.8 °C 62.2 °F /  16.8 °C 30.01in /  1016.1hPa SW 3.0mph /  4.8km/h 7.0mph /  11.3km/h 51% 0.00in /  0mm
16:38 82.1 °F /  27.8 °C 58.7 °F /  14.8 °C 30.01in /  1016.1hPa SW 6.0mph /  9.7km/h 10.0mph /  16.1km/h 45% 0.00in /  0mm
16:43 82.1 °F /  27.8 °C 54.7 °F /  12.6 °C 30.01in /  1016.1hPa SW 6.0mph /  9.7km/h 10.0mph /  16.1km/h 39% 0.00in /  0mm
16:49 82.4 °F /  28 °C 55.0 °F /  12.8 °C 30.01in /  1016.1hPa SW 7.0mph /  11.3km/h 9.0mph /  14.5km/h 39% 0.00in /  0mm
16:54 82.7 °F /  28.2 °C 56.0 °F /  13.3 °C 30.01in /  1016.1hPa SW 5.0mph /  8km/h 9.0mph /  14.5km/h 40% 0.00in /  0mm
16:59 82.8 °F /  28.2 °C 55.3 °F /  12.9 °C 30.01in /  1016.1hPa SW 9.0mph /  14.5km/h 11.0mph /  17.7km/h 39% 0.00in /  0mm
17:04 82.7 °F /  28.2 °C 57.3 °F /  14.1 °C 30.01in /  1016.1hPa WSW 3.0mph /  4.8km/h 8.0mph /  12.9km/h 42% 0.00in /  0mm
17:09 82.8 °F /  28.2 °C 58.0 °F /  14.4 °C 30.01in /  1016.1hPa SW 5.0mph /  8km/h 9.0mph /  14.5km/h 43% 0.00in /  0mm
17:14 83.0 °F /  28.3 °C 57.6 °F /  14.2 °C 30.01in /  1016.1hPa SW 6.0mph /  9.7km/h 6.0mph /  9.7km/h 42% 0.00in /  0mm
17:19 83.1 °F /  28.4 °C 58.3 °F /  14.6 °C 30.01in /  1016.1hPa SSE 4.0mph /  6.4km/h 5.0mph /  8km/h 43% 0.00in /  0mm
17:24 83.2 °F /  28.4 °C 58.4 °F /  14.7 °C 30.01in /  1016.1hPa South 5.0mph /  8km/h 9.0mph /  14.5km/h 43% 0.00in /  0mm
17:29 83.2 °F /  28.4 °C 58.4 °F /  14.7 °C 30.00in /  1015.8hPa SW 3.0mph /  4.8km/h 6.0mph /  9.7km/h 43% 0.00in /  0mm
17:34 83.1 °F /  28.4 °C 59.6 °F /  15.3 °C 30.01in /  1016.1hPa SSE 3.0mph /  4.8km/h 9.0mph /  14.5km/h 45% 0.00in /  0mm
17:39 83.5 °F /  28.6 °C 59.9 °F /  15.5 °C 30.01in /  1016.1hPa SSW 4.0mph /  6.4km/h 6.0mph /  9.7km/h 45% 0.00in /  0mm
17:44 83.6 °F /  28.7 °C 58.8 °F /  14.9 °C 30.00in /  1015.8hPa SSE 8.0mph /  12.9km/h 10.0mph /  16.1km/h 43% 0.00in /  0mm
17:49 83.6 °F /  28.7 °C 58.8 °F /  14.9 °C 30.01in /  1016.1hPa South 3.0mph /  4.8km/h 5.0mph /  8km/h 43% 0.00in /  0mm
17:54 83.7 °F /  28.7 °C 58.8 °F /  14.9 °C 30.01in /  1016.1hPa SW 7.0mph /  11.3km/h 7.0mph /  11.3km/h 43% 0.00in /  0mm
17:59 83.5 °F /  28.6 °C 58.7 °F /  14.8 °C 30.00in /  1015.8hPa SSE 2.0mph /  3.2km/h 6.0mph /  9.7km/h 43% 0.00in /  0mm
18:04 83.4 °F /  28.6 °C 57.9 °F /  14.4 °C 30.01in /  1016.1hPa SSW 3.0mph /  4.8km/h 10.0mph /  16.1km/h 42% 0.00in /  0mm
18:09 82.9 °F /  28.3 °C 56.8 °F /  13.8 °C 30.01in /  1016.1hPa South 3.0mph /  4.8km/h 7.0mph /  11.3km/h 41% 0.00in /  0mm
18:14 82.9 °F /  28.3 °C 59.4 °F /  15.2 °C 30.01in /  1016.1hPa South 3.0mph /  4.8km/h 4.0mph /  6.4km/h 45% 0.00in /  0mm
18:19 82.8 °F /  28.2 °C 58.7 °F /  14.8 °C 30.01in /  1016.1hPa SSW 4.0mph /  6.4km/h 5.0mph /  8km/h 44% 0.00in /  0mm
18:24 82.6 °F /  28.1 °C 57.2 °F /  14 °C 30.01in /  1016.1hPa WSW 6.0mph /  9.7km/h 9.0mph /  14.5km/h 42% 0.00in /  0mm
18:29 82.8 °F /  28.2 °C 58.7 °F /  14.8 °C 30.01in /  1016.1hPa SW 6.0mph /  9.7km/h 7.0mph /  11.3km/h 44% 0.00in /  0mm
18:34 82.9 °F /  28.3 °C 58.1 °F /  14.5 °C 30.01in /  1016.1hPa SSE 5.0mph /  8km/h 7.0mph /  11.3km/h 43% 0.00in /  0mm
18:39 82.6 °F /  28.1 °C 57.9 °F /  14.4 °C 30.01in /  1016.1hPa SW 5.0mph /  8km/h 9.0mph /  14.5km/h 43% 0.00in /  0mm
18:44 82.3 °F /  27.9 °C 58.2 °F /  14.6 °C 30.01in /  1016.1hPa SSE 3.0mph /  4.8km/h 7.0mph /  11.3km/h 44% 0.00in /  0mm
18:49 82.4 °F /  28 °C 57.7 °F /  14.3 °C 30.01in /  1016.1hPa SSE 5.0mph /  8km/h 8.0mph /  12.9km/h 43% 0.00in /  0mm
18:54 82.4 °F /  28 °C 58.3 °F /  14.6 °C 30.01in /  1016.1hPa SSW 8.0mph /  12.9km/h 8.0mph /  12.9km/h 44% 0.00in /  0mm
18:59 82.5 °F /  28.1 °C 57.1 °F /  13.9 °C 30.01in /  1016.1hPa SSE 2.0mph /  3.2km/h 7.0mph /  11.3km/h 42% 0.00in /  0mm
19:04 82.3 °F /  27.9 °C 58.2 °F /  14.6 °C 30.01in /  1016.1hPa SW 2.0mph /  3.2km/h 6.0mph /  9.7km/h 44% 0.00in /  0mm
19:09 82.1 °F /  27.8 °C 58.0 °F /  14.4 °C 30.00in /  1015.8hPa SSW 2.0mph /  3.2km/h 6.0mph /  9.7km/h 44% 0.00in /  0mm
19:14 82.2 °F /  27.9 °C 58.1 °F /  14.5 °C 30.00in /  1015.8hPa SW 1.0mph /  1.6km/h 5.0mph /  8km/h 44% 0.00in /  0mm
19:20 82.0 °F /  27.8 °C 59.2 °F /  15.1 °C 30.00in /  1015.8hPa WSW 3.0mph /  4.8km/h 5.0mph /  8km/h 46% 0.00in /  0mm
19:25 81.8 °F /  27.7 °C 59.6 °F /  15.3 °C 30.00in /  1015.8hPa SSW 1.0mph /  1.6km/h 3.0mph /  4.8km/h 47% 0.00in /  0mm
19:30 81.8 °F /  27.7 °C 59.0 °F /  15 °C 30.00in /  1015.8hPa SSW 1.0mph /  1.6km/h 4.0mph /  6.4km/h 46% 0.00in /  0mm
19:35 81.6 °F /  27.6 °C 59.4 °F /  15.2 °C 30.00in /  1015.8hPa SSW 2.0mph /  3.2km/h 3.0mph /  4.8km/h 47% 0.00in /  0mm
19:40 81.2 °F /  27.3 °C 59.1 °F /  15.1 °C 30.00in /  1015.8hPa SSW 2.0mph /  3.2km/h 3.0mph /  4.8km/h 47% 0.00in /  0mm
19:45 80.9 °F /  27.2 °C 60.5 °F /  15.8 °C 30.00in /  1015.8hPa SW 2.0mph /  3.2km/h 3.0mph /  4.8km/h 50% 0.00in /  0mm
19:50 80.7 °F /  27.1 °C 60.3 °F /  15.7 °C 30.00in /  1015.8hPa SSW 1.0mph /  1.6km/h 3.0mph /  4.8km/h 50% 0.00in /  0mm
19:55 80.9 °F /  27.2 °C 60.5 °F /  15.8 °C 30.00in /  1015.8hPa SSW 1.0mph /  1.6km/h 1.0mph /  1.6km/h 50% 0.00in /  0mm
20:00 80.7 °F /  27.1 °C 59.8 °F /  15.4 °C 30.00in /  1015.8hPa SW 1.0mph /  1.6km/h 2.0mph /  3.2km/h 49% 0.00in /  0mm
20:05 80.6 °F /  27 °C 60.3 °F /  15.7 °C 30.01in /  1016.1hPa Calm   1.0mph /  1.6km/h 50% 0.00in /  0mm
20:10 80.2 °F /  26.8 °C 60.5 °F /  15.8 °C 30.01in /  1016.1hPa Calm   1.0mph /  1.6km/h 51% 0.00in /  0mm
20:15 79.5 °F /  26.4 °C 60.3 °F /  15.7 °C 30.01in /  1016.1hPa Calm   1.0mph /  1.6km/h 52% 0.00in /  0mm
20:16 79.5 °F /  26.4 °C 60.9 °F /  16.1 °C 30.01in /  1016.1hPa Calm   1.0mph /  1.6km/h 53% 0.00in /  0mm
20:21 78.5 °F /  25.8 °C 60.5 °F /  15.8 °C 30.01in /  1016.1hPa Calm     54% 0.00in /  0mm
20:26 77.2 °F /  25.1 °C 60.8 °F /  16 °C 30.00in /  1015.8hPa Calm     57% 0.00in /  0mm
20:31 76.3 °F /  24.6 °C 60.5 °F /  15.8 °C 30.01in /  1016.1hPa SSE 1.0mph /  1.6km/h 1.0mph /  1.6km/h 58% 0.00in /  0mm
20:36 75.3 °F /  24.1 °C 60.0 °F /  15.6 °C 30.01in /  1016.1hPa ESE 1.0mph /  1.6km/h 1.0mph /  1.6km/h 59% 0.00in /  0mm
20:41 74.6 °F /  23.7 °C 60.3 °F /  15.7 °C 30.01in /  1016.1hPa Calm   1.0mph /  1.6km/h 61% 0.00in /  0mm
20:46 74.0 °F /  23.3 °C 59.7 °F /  15.4 °C 30.01in /  1016.1hPa Calm     61% 0.00in /  0mm
20:51 73.1 °F /  22.8 °C 59.8 °F /  15.4 °C 30.01in /  1016.1hPa Calm     63% 0.00in /  0mm
20:56 72.2 °F /  22.3 °C 59.8 °F /  15.4 °C 30.01in /  1016.1hPa Calm     65% 0.00in /  0mm
21:01 71.8 °F /  22.1 °C 59.8 °F /  15.4 °C 30.01in /  1016.1hPa Calm     66% 0.00in /  0mm
21:06 71.6 °F /  22 °C 59.7 °F /  15.4 °C 30.02in /  1016.5hPa Calm     66% 0.00in /  0mm
21:11 71.1 °F /  21.7 °C 59.6 °F /  15.3 °C 30.02in /  1016.5hPa Calm     67% 0.00in /  0mm
21:16 70.5 °F /  21.4 °C 59.4 °F /  15.2 °C 30.02in /  1016.5hPa Calm     68% 0.00in /  0mm
21:21 69.9 °F /  21.1 °C 59.7 °F /  15.4 °C 30.02in /  1016.5hPa Calm     70% 0.00in /  0mm
21:26 69.5 °F /  20.8 °C 60.1 °F /  15.6 °C 30.03in /  1016.8hPa Calm     72% 0.00in /  0mm
21:31 69.3 °F /  20.7 °C 60.3 °F /  15.7 °C 30.02in /  1016.5hPa Calm     73% 0.00in /  0mm
21:36 68.8 °F /  20.4 °C 60.2 °F /  15.7 °C 30.02in /  1016.5hPa Calm     74% 0.00in /  0mm
21:42 68.8 °F /  20.4 °C 59.8 °F /  15.4 °C 30.02in /  1016.5hPa Calm     73% 0.00in /  0mm
21:47 68.9 °F /  20.5 °C 59.5 °F /  15.3 °C 30.02in /  1016.5hPa Calm     72% 0.00in /  0mm
21:52 69.2 °F /  20.7 °C 59.8 °F /  15.4 °C 30.03in /  1016.8hPa Calm     72% 0.00in /  0mm
21:57 69.4 °F /  20.8 °C 59.6 °F /  15.3 °C 30.03in /  1016.8hPa Calm     71% 0.00in /  0mm
22:02 68.9 °F /  20.5 °C 59.5 °F /  15.3 °C 30.03in /  1016.8hPa Calm     72% 0.00in /  0mm
22:07 68.5 °F /  20.3 °C 59.5 °F /  15.3 °C 30.03in /  1016.8hPa Calm     73% 0.00in /  0mm
22:12 68.0 °F /  20 °C 59.4 °F /  15.2 °C 30.03in /  1016.8hPa Calm     74% 0.00in /  0mm
22:17 67.6 °F /  19.8 °C 59.4 °F /  15.2 °C 30.03in /  1016.8hPa Calm     75% 0.00in /  0mm
22:22 67.8 °F /  19.9 °C 59.6 °F /  15.3 °C 30.03in /  1016.8hPa Calm     75% 0.00in /  0mm
22:27 67.7 °F /  19.8 °C 59.1 °F /  15.1 °C 30.04in /  1017.2hPa Calm     74% 0.00in /  0mm
22:32 67.2 °F /  19.6 °C 59.0 °F /  15 °C 30.04in /  1017.2hPa Calm     75% 0.00in /  0mm
22:37 67.3 °F /  19.6 °C 59.1 °F /  15.1 °C 30.04in /  1017.2hPa Calm     75% 0.00in /  0mm
22:42 67.5 °F /  19.7 °C 59.3 °F /  15.2 °C 30.04in /  1017.2hPa Calm     75% 0.00in /  0mm
22:47 67.3 °F /  19.6 °C 59.5 °F /  15.3 °C 30.04in /  1017.2hPa Calm     76% 0.00in /  0mm
22:52 67.3 °F /  19.6 °C 59.5 °F /  15.3 °C 30.04in /  1017.2hPa Calm     76% 0.00in /  0mm
22:57 67.6 °F /  19.8 °C 59.4 °F /  15.2 °C 30.04in /  1017.2hPa Calm     75% 0.00in /  0mm
23:02 67.4 °F /  19.7 °C 59.2 °F /  15.1 °C 30.04in /  1017.2hPa Calm     75% 0.00in /  0mm
23:07 66.9 °F /  19.4 °C 59.1 °F /  15.1 °C 30.04in /  1017.2hPa Calm     76% 0.00in /  0mm
23:12 66.9 °F /  19.4 °C 59.5 °F /  15.3 °C 30.04in /  1017.2hPa Calm     77% 0.00in /  0mm
23:17 67.4 °F /  19.7 °C 59.6 °F /  15.3 °C 30.04in /  1017.2hPa Calm     76% 0.00in /  0mm
23:22 67.7 °F /  19.8 °C 59.5 °F /  15.3 °C 30.04in /  1017.2hPa East 1.0mph /  1.6km/h 2.0mph /  3.2km/h 75% 0.00in /  0mm
23:27 67.8 °F /  19.9 °C 59.6 °F /  15.3 °C 30.04in /  1017.2hPa ESE 1.0mph /  1.6km/h 2.0mph /  3.2km/h 75% 0.00in /  0mm
23:32 67.8 °F /  19.9 °C 59.2 °F /  15.1 °C 30.04in /  1017.2hPa Calm     74% 0.00in /  0mm
23:38 66.8 °F /  19.3 °C 59.0 °F /  15 °C 30.04in /  1017.2hPa Calm     76% 0.00in /  0mm
23:43 65.8 °F /  18.8 °C 58.8 °F /  14.9 °C 30.04in /  1017.2hPa Calm     78% 0.00in /  0mm
23:48 65.1 °F /  18.4 °C 58.8 °F /  14.9 °C 30.04in /  1017.2hPa Calm     80% 0.00in /  0mm
23:53 65.1 °F /  18.4 °C 58.8 °F /  14.9 °C 30.04in /  1017.2hPa Calm     80% 0.00in /  0mm
23:58 64.7 °F /  18.2 °C 58.4 °F /  14.7 °C 30.04in /  1017.2hPa Calm     80% 0.00in /  0mm
Compliments of Weather Underground